KMSV/MSV METAR and TAF weather

Enter ICAO airport designator
Station Type Date Time Source
KMSV METAR 2019/10/15 02:56 UTC NOAA

KMSV 150256Z AUTO 31007KT 10SM CLR 08/03 A3008 RMK AO2 SLP189 T00830033 51024


Station Type Date Time Source
KMSV Decoded METAR 2019/10/15 02:56 UTC NOAA

Monticello, Sullivan County International Airport, NY, United States (KMSV) 41-42N 074-48W
Oct 14, 2019 - 10:56 PM EDT / 2019.10.15 0256 UTC
Wind: from the NW (310 degrees) at 8 MPH (7 KT):0
Visibility: 10 mile(s):0
Sky conditions: clear
Temperature: 46.9 F (8.3 C)
Dew Point: 37.9 F (3.3 C)
Relative Humidity: 70%
Pressure (altimeter): 30.08 in. Hg (1018 hPa)
Pressure tendency: 0.07 inches (2.4 hPa) higher than three hours ago
ob: KMSV 150256Z AUTO 31007KT 10SM CLR 08/03 A3008 RMK AO2 SLP189 T00830033 51024
cycle: 3

Station Type Date Time Source
KMSV TAF UTC NOAA

Error!

Example: see airport list